sensor_id;sensor_type;location;lat;lon;timestamp;P1;durP1;ratioP1;P2;durP2;ratioP2
53287;SDS011;39172;45.550;12.072;2022-09-28T00:05:43;0.70;;;0.50;;
53287;SDS011;39172;45.550;12.072;2022-09-28T00:11:44;0.60;;;0.40;;
53287;SDS011;39172;45.550;12.072;2022-09-28T00:17:45;0.57;;;0.40;;
53287;SDS011;39172;45.550;12.072;2022-09-28T00:23:46;0.80;;;0.40;;
53287;SDS011;39172;45.550;12.072;2022-09-28T00:30:06;0.68;;;0.43;;
53287;SDS011;39172;45.550;12.072;2022-09-28T00:36:28;0.68;;;0.40;;
53287;SDS011;39172;45.550;12.072;2022-09-28T00:42:29;0.50;;;0.40;;
53287;SDS011;39172;45.550;12.072;2022-09-28T00:48:34;0.57;;;0.35;;
53287;SDS011;39172;45.550;12.072;2022-09-28T00:54:37;0.40;;;0.30;;
53287;SDS011;39172;45.550;12.072;2022-09-28T01:00:39;0.35;;;0.30;;
53287;SDS011;39172;45.550;12.072;2022-09-28T01:06:40;0.50;;;0.40;;
53287;SDS011;39172;45.550;12.072;2022-09-28T01:12:43;0.30;;;0.30;;
53287;SDS011;39172;45.550;12.072;2022-09-28T01:25:10;0.55;;;0.30;;
53287;SDS011;39172;45.550;12.072;2022-09-28T01:31:12;0.55;;;0.40;;
53287;SDS011;39172;45.550;12.072;2022-09-28T01:37:16;0.63;;;0.30;;
53287;SDS011;39172;45.550;12.072;2022-09-28T01:43:22;0.43;;;0.32;;
53287;SDS011;39172;45.550;12.072;2022-09-28T01:49:28;0.68;;;0.40;;
53287;SDS011;39172;45.550;12.072;2022-09-28T01:55:33;0.45;;;0.30;;
53287;SDS011;39172;45.550;12.072;2022-09-28T02:01:48;0.50;;;0.40;;
53287;SDS011;39172;45.550;12.072;2022-09-28T02:07:53;0.60;;;0.50;;
53287;SDS011;39172;45.550;12.072;2022-09-28T02:14:05;1.05;;;0.65;;
53287;SDS011;39172;45.550;12.072;2022-09-28T02:20:08;0.70;;;0.52;;
53287;SDS011;39172;45.550;12.072;2022-09-28T02:26:11;1.25;;;0.68;;
53287;SDS011;39172;45.550;12.072;2022-09-28T02:32:14;0.80;;;0.70;;
53287;SDS011;39172;45.550;12.072;2022-09-28T02:38:17;0.95;;;0.82;;
53287;SDS011;39172;45.550;12.072;2022-09-28T02:51:12;1.30;;;0.90;;
53287;SDS011;39172;45.550;12.072;2022-09-28T03:03:21;1.52;;;0.93;;
53287;SDS011;39172;45.550;12.072;2022-09-28T03:09:30;1.98;;;1.02;;
53287;SDS011;39172;45.550;12.072;2022-09-28T03:15:33;1.75;;;1.00;;
53287;SDS011;39172;45.550;12.072;2022-09-28T03:21:34;1.23;;;0.80;;
53287;SDS011;39172;45.550;12.072;2022-09-28T03:27:35;1.23;;;0.90;;
53287;SDS011;39172;45.550;12.072;2022-09-28T03:33:37;1.00;;;0.70;;
53287;SDS011;39172;45.550;12.072;2022-09-28T03:39:38;1.00;;;0.70;;
53287;SDS011;39172;45.550;12.072;2022-09-28T03:45:39;1.25;;;0.80;;
53287;SDS011;39172;45.550;12.072;2022-09-28T03:51:40;1.17;;;0.70;;
53287;SDS011;39172;45.550;12.072;2022-09-28T03:57:42;1.17;;;0.75;;
53287;SDS011;39172;45.550;12.072;2022-09-28T04:03:43;1.40;;;0.70;;
53287;SDS011;39172;45.550;12.072;2022-09-28T04:09:45;1.05;;;0.55;;
53287;SDS011;39172;45.550;12.072;2022-09-28T04:15:54;0.80;;;0.50;;
53287;SDS011;39172;45.550;12.072;2022-09-28T04:21:55;0.68;;;0.40;;
53287;SDS011;39172;45.550;12.072;2022-09-28T04:27:56;0.73;;;0.50;;
53287;SDS011;39172;45.550;12.072;2022-09-28T04:34:16;2.00;;;0.90;;
53287;SDS011;39172;45.550;12.072;2022-09-28T04:40:18;1.63;;;1.20;;
53287;SDS011;39172;45.550;12.072;2022-09-28T04:46:19;1.98;;;0.98;;
53287;SDS011;39172;45.550;12.072;2022-09-28T04:52:28;1.65;;;0.80;;
53287;SDS011;39172;45.550;12.072;2022-09-28T04:58:29;1.20;;;0.80;;
53287;SDS011;39172;45.550;12.072;2022-09-28T05:04:30;1.40;;;0.90;;
53287;SDS011;39172;45.550;12.072;2022-09-28T05:11:00;1.90;;;0.80;;
53287;SDS011;39172;45.550;12.072;2022-09-28T05:17:02;1.02;;;0.70;;
53287;SDS011;39172;45.550;12.072;2022-09-28T05:23:23;1.45;;;0.63;;
53287;SDS011;39172;45.550;12.072;2022-09-28T05:29:28;1.15;;;0.70;;
53287;SDS011;39172;45.550;12.072;2022-09-28T05:36:07;0.90;;;0.60;;
53287;SDS011;39172;45.550;12.072;2022-09-28T05:42:08;1.15;;;0.70;;
53287;SDS011;39172;45.550;12.072;2022-09-28T05:48:09;1.35;;;0.70;;
53287;SDS011;39172;45.550;12.072;2022-09-28T05:54:10;1.50;;;0.70;;
53287;SDS011;39172;45.550;12.072;2022-09-28T06:00:15;2.17;;;0.85;;
53287;SDS011;39172;45.550;12.072;2022-09-28T06:06:44;1.10;;;0.65;;
53287;SDS011;39172;45.550;12.072;2022-09-28T06:12:45;1.83;;;0.70;;
53287;SDS011;39172;45.550;12.072;2022-09-28T06:18:50;1.38;;;0.70;;
53287;SDS011;39172;45.550;12.072;2022-09-28T06:25:09;0.90;;;0.60;;
53287;SDS011;39172;45.550;12.072;2022-09-28T06:31:13;1.48;;;0.70;;
53287;SDS011;39172;45.550;12.072;2022-09-28T06:37:20;1.05;;;0.65;;
53287;SDS011;39172;45.550;12.072;2022-09-28T06:43:21;1.08;;;0.73;;
53287;SDS011;39172;45.550;12.072;2022-09-28T06:49:40;1.07;;;0.87;;
53287;SDS011;39172;45.550;12.072;2022-09-28T06:56:10;0.77;;;0.57;;
53287;SDS011;39172;45.550;12.072;2022-09-28T07:02:11;1.27;;;0.80;;
53287;SDS011;39172;45.550;12.072;2022-09-28T07:08:33;1.05;;;0.80;;
53287;SDS011;39172;45.550;12.072;2022-09-28T07:15:04;1.73;;;0.80;;
53287;SDS011;39172;45.550;12.072;2022-09-28T07:21:06;1.10;;;0.65;;
53287;SDS011;39172;45.550;12.072;2022-09-28T07:27:08;1.83;;;0.60;;
53287;SDS011;39172;45.550;12.072;2022-09-28T07:33:28;1.35;;;0.70;;
53287;SDS011;39172;45.550;12.072;2022-09-28T07:39:47;2.63;;;0.77;;
53287;SDS011;39172;45.550;12.072;2022-09-28T07:46:13;1.30;;;0.63;;
53287;SDS011;39172;45.550;12.072;2022-09-28T07:52:24;1.45;;;0.70;;
53287;SDS011;39172;45.550;12.072;2022-09-28T07:58:40;3.25;;;0.70;;
53287;SDS011;39172;45.550;12.072;2022-09-28T08:05:00;2.65;;;0.90;;
53287;SDS011;39172;45.550;12.072;2022-09-28T08:11:02;3.17;;;1.23;;
53287;SDS011;39172;45.550;12.072;2022-09-28T08:17:32;1.30;;;0.70;;
53287;SDS011;39172;45.550;12.072;2022-09-28T08:23:34;3.17;;;0.98;;
53287;SDS011;39172;45.550;12.072;2022-09-28T08:29:37;2.10;;;0.60;;
53287;SDS011;39172;45.550;12.072;2022-09-28T08:36:01;2.78;;;1.00;;
53287;SDS011;39172;45.550;12.072;2022-09-28T08:49:12;1.48;;;0.80;;
53287;SDS011;39172;45.550;12.072;2022-09-28T08:55:45;1.15;;;0.70;;
53287;SDS011;39172;45.550;12.072;2022-09-28T09:01:47;1.30;;;0.60;;
53287;SDS011;39172;45.550;12.072;2022-09-28T09:52:05;1.10;;;0.60;;
53287;SDS011;39172;45.550;12.072;2022-09-28T09:58:14;1.00;;;0.50;;
53287;SDS011;39172;45.550;12.072;2022-09-28T10:04:27;1.65;;;0.60;;
53287;SDS011;39172;45.550;12.072;2022-09-28T10:16:52;1.85;;;0.60;;
53287;SDS011;39172;45.550;12.072;2022-09-28T10:23:20;1.00;;;0.50;;
53287;SDS011;39172;45.550;12.072;2022-09-28T10:29:23;0.85;;;0.60;;
53287;SDS011;39172;45.550;12.072;2022-09-28T10:35:26;0.93;;;0.60;;
53287;SDS011;39172;45.550;12.072;2022-09-28T10:41:30;0.80;;;0.50;;
53287;SDS011;39172;45.550;12.072;2022-09-28T10:47:35;0.93;;;0.50;;
53287;SDS011;39172;45.550;12.072;2022-09-28T10:53:38;1.15;;;0.50;;
53287;SDS011;39172;45.550;12.072;2022-09-28T11:00:26;1.63;;;0.60;;
53287;SDS011;39172;45.550;12.072;2022-09-28T11:06:45;0.82;;;0.60;;
53287;SDS011;39172;45.550;12.072;2022-09-28T11:12:47;0.70;;;0.40;;
53287;SDS011;39172;45.550;12.072;2022-09-28T11:18:49;0.90;;;0.55;;
53287;SDS011;39172;45.550;12.072;2022-09-28T11:24:50;1.23;;;0.50;;
53287;SDS011;39172;45.550;12.072;2022-09-28T11:30:51;1.42;;;0.70;;
53287;SDS011;39172;45.550;12.072;2022-09-28T11:37:22;1.70;;;0.50;;
53287;SDS011;39172;45.550;12.072;2022-09-28T11:49:36;0.90;;;0.60;;
53287;SDS011;39172;45.550;12.072;2022-09-28T11:55:41;1.00;;;0.60;;
53287;SDS011;39172;45.550;12.072;2022-09-28T12:01:46;1.02;;;0.60;;
53287;SDS011;39172;45.550;12.072;2022-09-28T12:08:17;0.73;;;0.50;;
53287;SDS011;39172;45.550;12.072;2022-09-28T12:14:46;1.10;;;0.60;;
53287;SDS011;39172;45.550;12.072;2022-09-28T12:20:48;0.70;;;0.50;;
53287;SDS011;39172;45.550;12.072;2022-09-28T13:09:25;1.40;;;0.55;;
53287;SDS011;39172;45.550;12.072;2022-09-28T13:15:29;1.33;;;0.60;;
53287;SDS011;39172;45.550;12.072;2022-09-28T13:27:37;1.48;;;0.80;;
53287;SDS011;39172;45.550;12.072;2022-09-28T13:33:41;1.67;;;0.88;;
53287;SDS011;39172;45.550;12.072;2022-09-28T13:45:48;1.05;;;0.77;;
53287;SDS011;39172;45.550;12.072;2022-09-28T13:58:01;1.42;;;0.70;;
53287;SDS011;39172;45.550;12.072;2022-09-28T14:04:17;2.22;;;0.80;;
53287;SDS011;39172;45.550;12.072;2022-09-28T14:10:22;1.20;;;0.70;;
53287;SDS011;39172;45.550;12.072;2022-09-28T14:16:26;1.85;;;0.60;;
53287;SDS011;39172;45.550;12.072;2022-09-28T14:22:41;1.20;;;0.65;;
53287;SDS011;39172;45.550;12.072;2022-09-28T14:34:55;1.63;;;0.82;;
53287;SDS011;39172;45.550;12.072;2022-09-28T14:48:02;1.60;;;0.70;;
53287;SDS011;39172;45.550;12.072;2022-09-28T14:53:30;1.67;;;0.70;;
53287;SDS011;39172;45.550;12.072;2022-09-28T14:59:39;1.27;;;0.70;;
53287;SDS011;39172;45.550;12.072;2022-09-28T15:05:43;1.33;;;0.80;;
53287;SDS011;39172;45.550;12.072;2022-09-28T15:11:47;1.00;;;0.70;;
53287;SDS011;39172;45.550;12.072;2022-09-28T15:18:03;1.10;;;0.80;;
53287;SDS011;39172;45.550;12.072;2022-09-28T15:30:29;1.23;;;0.80;;
53287;SDS011;39172;45.550;12.072;2022-09-28T15:36:41;1.02;;;0.60;;
53287;SDS011;39172;45.550;12.072;2022-09-28T15:42:42;1.67;;;0.73;;
53287;SDS011;39172;45.550;12.072;2022-09-28T15:48:54;0.85;;;0.50;;
53287;SDS011;39172;45.550;12.072;2022-09-28T15:54:55;2.10;;;1.00;;
53287;SDS011;39172;45.550;12.072;2022-09-28T16:13:17;1.58;;;0.70;;
53287;SDS011;39172;45.550;12.072;2022-09-28T16:19:30;1.98;;;0.75;;
53287;SDS011;39172;45.550;12.072;2022-09-28T16:25:35;2.45;;;1.20;;
53287;SDS011;39172;45.550;12.072;2022-09-28T16:31:38;2.58;;;1.33;;
53287;SDS011;39172;45.550;12.072;2022-09-28T16:38:09;3.38;;;1.30;;
53287;SDS011;39172;45.550;12.072;2022-09-28T16:44:15;2.28;;;1.15;;
53287;SDS011;39172;45.550;12.072;2022-09-28T16:50:18;2.78;;;1.30;;
53287;SDS011;39172;45.550;12.072;2022-09-28T16:56:20;2.20;;;1.27;;
53287;SDS011;39172;45.550;12.072;2022-09-28T17:02:21;3.03;;;1.10;;
53287;SDS011;39172;45.550;12.072;2022-09-28T17:08:26;1.70;;;1.00;;
53287;SDS011;39172;45.550;12.072;2022-09-28T17:14:27;1.95;;;1.23;;
53287;SDS011;39172;45.550;12.072;2022-09-28T17:20:27;1.45;;;0.90;;
53287;SDS011;39172;45.550;12.072;2022-09-28T17:26:29;0.88;;;0.68;;
53287;SDS011;39172;45.550;12.072;2022-09-28T17:32:31;0.90;;;0.70;;
53287;SDS011;39172;45.550;12.072;2022-09-28T17:38:34;1.20;;;0.70;;
53287;SDS011;39172;45.550;12.072;2022-09-28T17:44:36;2.15;;;1.35;;
53287;SDS011;39172;45.550;12.072;2022-09-28T17:50:37;2.22;;;1.20;;
53287;SDS011;39172;45.550;12.072;2022-09-28T17:56:38;2.90;;;1.40;;
53287;SDS011;39172;45.550;12.072;2022-09-28T18:02:39;1.95;;;1.30;;
53287;SDS011;39172;45.550;12.072;2022-09-28T18:08:40;2.28;;;1.40;;
53287;SDS011;39172;45.550;12.072;2022-09-28T18:14:42;3.30;;;1.83;;
53287;SDS011;39172;45.550;12.072;2022-09-28T18:20:43;2.90;;;1.60;;
53287;SDS011;39172;45.550;12.072;2022-09-28T18:26:45;2.03;;;1.10;;
53287;SDS011;39172;45.550;12.072;2022-09-28T18:32:45;1.50;;;0.82;;
53287;SDS011;39172;45.550;12.072;2022-09-28T18:38:46;2.63;;;1.48;;
53287;SDS011;39172;45.550;12.072;2022-09-28T18:44:47;2.55;;;1.50;;
53287;SDS011;39172;45.550;12.072;2022-09-28T18:50:48;2.63;;;1.50;;
53287;SDS011;39172;45.550;12.072;2022-09-28T18:56:52;3.35;;;1.70;;
53287;SDS011;39172;45.550;12.072;2022-09-28T19:02:53;2.83;;;1.70;;
53287;SDS011;39172;45.550;12.072;2022-09-28T19:08:54;2.05;;;1.50;;
53287;SDS011;39172;45.550;12.072;2022-09-28T19:14:55;2.05;;;1.48;;
53287;SDS011;39172;45.550;12.072;2022-09-28T19:21:00;1.70;;;1.10;;
53287;SDS011;39172;45.550;12.072;2022-09-28T19:27:01;1.00;;;0.73;;
53287;SDS011;39172;45.550;12.072;2022-09-28T19:33:01;0.80;;;0.60;;
53287;SDS011;39172;45.550;12.072;2022-09-28T19:39:02;1.45;;;0.90;;
53287;SDS011;39172;45.550;12.072;2022-09-28T19:45:03;1.48;;;0.60;;
53287;SDS011;39172;45.550;12.072;2022-09-28T19:51:05;0.73;;;0.60;;
53287;SDS011;39172;45.550;12.072;2022-09-28T19:57:05;1.05;;;0.80;;
53287;SDS011;39172;45.550;12.072;2022-09-28T20:03:10;0.60;;;0.40;;
53287;SDS011;39172;45.550;12.072;2022-09-28T20:09:10;0.80;;;0.43;;
53287;SDS011;39172;45.550;12.072;2022-09-28T20:15:11;0.70;;;0.50;;
53287;SDS011;39172;45.550;12.072;2022-09-28T20:21:12;0.40;;;0.30;;
53287;SDS011;39172;45.550;12.072;2022-09-28T20:27:13;0.65;;;0.32;;
53287;SDS011;39172;45.550;12.072;2022-09-28T20:33:14;0.75;;;0.60;;
53287;SDS011;39172;45.550;12.072;2022-09-28T20:39:15;0.90;;;0.70;;
53287;SDS011;39172;45.550;12.072;2022-09-28T20:45:17;1.63;;;0.77;;
53287;SDS011;39172;45.550;12.072;2022-09-28T20:51:18;1.17;;;0.85;;
53287;SDS011;39172;45.550;12.072;2022-09-28T20:57:20;0.93;;;0.60;;
53287;SDS011;39172;45.550;12.072;2022-09-28T21:40:52;1.42;;;1.00;;
53287;SDS011;39172;45.550;12.072;2022-09-28T21:47:06;1.73;;;1.15;;
53287;SDS011;39172;45.550;12.072;2022-09-28T22:07:04;1.67;;;1.27;;
53287;SDS011;39172;45.550;12.072;2022-09-28T22:13:07;1.88;;;1.40;;
53287;SDS011;39172;45.550;12.072;2022-09-28T22:19:19;1.35;;;1.20;;
53287;SDS011;39172;45.550;12.072;2022-09-28T22:25:20;1.55;;;1.20;;
53287;SDS011;39172;45.550;12.072;2022-09-28T22:31:26;1.27;;;0.80;;
53287;SDS011;39172;45.550;12.072;2022-09-28T22:45:12;0.80;;;0.60;;
53287;SDS011;39172;45.550;12.072;2022-09-28T22:51:15;1.15;;;0.75;;
53287;SDS011;39172;45.550;12.072;2022-09-28T22:57:16;1.20;;;0.95;;
53287;SDS011;39172;45.550;12.072;2022-09-28T23:03:18;1.90;;;1.10;;
53287;SDS011;39172;45.550;12.072;2022-09-28T23:09:19;1.45;;;1.00;;
53287;SDS011;39172;45.550;12.072;2022-09-28T23:15:20;1.20;;;1.00;;
53287;SDS011;39172;45.550;12.072;2022-09-28T23:21:22;2.00;;;1.30;;
53287;SDS011;39172;45.550;12.072;2022-09-28T23:27:23;1.55;;;1.30;;
53287;SDS011;39172;45.550;12.072;2022-09-28T23:33:26;1.10;;;0.90;;
53287;SDS011;39172;45.550;12.072;2022-09-28T23:39:30;0.93;;;0.75;;
